Time;durP1;ratioP1;P1;durP2;ratioP2;P2;SDS_P1;SDS_P2;PMS_P1;PMS_P2;Temp;Humidity;BMP_temperature;BMP_pressure;BME280_temperature;BME280_humidity;BME280_pressure;Samples;Min_cycle;Max_cycle;Signal;HPM_P1;HPM_P2
2022/01/05 00:02:30;;;;;;;18.90;3.22;;;1.60;95.70;;;;;;4940329;28;20028;-91
2022/01/05 00:04:58;;;;;;;25.10;3.05;;;1.50;95.80;;;;;;4950948;28;20028;-91
2022/01/05 00:07:26;;;;;;;10.15;2.30;;;1.50;95.80;;;;;;4932918;29;20031;-91
2022/01/05 00:09:56;;;;;;;16.58;3.03;;;1.50;95.80;;;;;;4930618;29;20094;-91
2022/01/05 00:12:24;;;;;;;13.38;2.55;;;1.50;95.80;;;;;;4951112;28;20032;-91
2022/01/05 00:14:50;;;;;;;18.98;2.63;;;1.50;95.90;;;;;;4932053;29;20404;-91
2022/01/05 00:17:16;;;;;;;13.75;2.67;;;1.40;95.90;;;;;;4932149;29;20012;-91
2022/01/05 00:19:41;;;;;;;15.43;2.58;;;1.50;95.90;;;;;;4944902;28;20041;-91
2022/01/05 00:22:14;;;;;;;16.50;2.85;;;1.50;95.90;;;;;;4943276;28;20028;-91
2022/01/05 00:24:41;;;;;;;18.75;2.58;;;1.50;95.90;;;;;;4930408;29;20060;-91
2022/01/05 00:27:30;;;;;;;11.32;2.95;;;1.50;95.90;;;;;;4931853;29;20480;-91
2022/01/05 00:29:55;;;;;;;12.40;2.63;;;1.50;95.90;;;;;;4927706;29;20078;-91
2022/01/05 00:32:21;;;;;;;13.57;2.38;;;1.50;95.90;;;;;;4945990;28;20063;-91
2022/01/05 00:35:04;;;;;;;10.35;2.67;;;1.40;95.90;;;;;;4930912;29;20083;-91
2022/01/05 00:37:32;;;;;;;17.20;3.08;;;1.40;95.90;;;;;;4949260;28;20047;-91
2022/01/05 00:40:01;;;;;;;21.92;3.10;;;1.40;95.90;;;;;;4930957;29;20399;-91
2022/01/05 00:42:26;;;;;;;13.65;3.38;;;1.50;96.00;;;;;;4931395;29;20539;-91
2022/01/05 00:44:55;;;;;;;14.73;2.67;;;1.40;95.80;;;;;;4931124;29;20111;-91
2022/01/05 00:47:20;;;;;;;15.05;2.95;;;1.40;95.90;;;;;;4946422;28;20399;-91
2022/01/05 00:49:48;;;;;;;10.85;2.90;;;1.40;95.90;;;;;;4929408;29;20340;-91
2022/01/05 00:52:14;;;;;;;19.33;3.28;;;1.40;95.90;;;;;;4941028;28;20024;-91
2022/01/05 00:54:42;;;;;;;13.45;2.22;;;1.40;95.90;;;;;;4923744;29;20110;-91
2022/01/05 00:57:10;;;;;;;19.08;3.20;;;1.40;95.90;;;;;;4943436;28;20104;-91
2022/01/05 00:59:38;;;;;;;17.08;3.00;;;1.50;95.90;;;;;;4947585;28;20051;-91
2022/01/05 01:02:06;;;;;;;21.00;3.20;;;1.40;95.80;;;;;;4931065;29;20180;-91
2022/01/05 01:04:31;;;;;;;7.93;2.55;;;1.50;95.90;;;;;;4930900;29;20562;-91
2022/01/05 01:07:14;;;;;;;14.77;3.10;;;1.50;95.60;;;;;;4931058;29;20028;-91
2022/01/05 01:09:40;;;;;;;20.23;3.03;;;1.50;95.50;;;;;;4941836;28;20060;-90
2022/01/05 01:12:09;;;;;;;19.65;2.75;;;1.40;95.60;;;;;;4930751;29;20066;-91
2022/01/05 01:14:34;;;;;;;15.23;2.90;;;1.40;95.70;;;;;;4927719;29;20067;-91
2022/01/05 01:17:00;;;;;;;12.73;2.40;;;1.30;95.70;;;;;;4946991;28;20075;-91
2022/01/05 01:19:25;;;;;;;13.27;3.40;;;1.30;95.80;;;;;;4930383;29;20074;-91
2022/01/05 01:21:53;;;;;;;14.07;3.03;;;1.30;95.80;;;;;;4925820;29;20424;-91
2022/01/05 01:24:23;;;;;;;18.65;3.10;;;1.30;95.80;;;;;;4933062;29;20016;-91
2022/01/05 01:26:54;;;;;;;21.10;3.03;;;1.30;95.80;;;;;;4948168;28;20038;-90
2022/01/05 01:29:29;;;;;;;15.45;2.80;;;1.20;95.90;;;;;;4944622;28;20074;-91
2022/01/05 01:31:55;;;;;;;15.55;2.95;;;1.20;96.00;;;;;;4926734;29;20216;-91
2022/01/05 01:34:27;;;;;;;10.82;2.80;;;1.10;96.00;;;;;;4932131;29;20032;-91
2022/01/05 01:36:53;;;;;;;15.60;2.40;;;1.10;96.10;;;;;;4928349;29;20444;-91
2022/01/05 01:39:19;;;;;;;14.23;2.95;;;1.10;96.20;;;;;;4927795;29;20063;-91
2022/01/05 01:41:44;;;;;;;10.63;2.47;;;1.10;96.00;;;;;;4922985;29;20256;-91
2022/01/05 01:44:10;;;;;;;16.83;2.40;;;1.10;96.10;;;;;;4932889;29;20468;-91
2022/01/05 01:46:35;;;;;;;18.85;2.58;;;1.10;96.10;;;;;;4939164;28;20050;-91
2022/01/05 01:49:01;;;;;;;20.70;2.88;;;1.10;96.10;;;;;;4929772;29;20062;-91
2022/01/05 01:51:29;;;;;;;22.20;2.80;;;1.00;96.10;;;;;;4925966;29;20030;-91
2022/01/05 01:53:55;;;;;;;13.35;1.90;;;1.00;96.00;;;;;;4943093;28;20499;-91
2022/01/05 01:56:22;;;;;;;7.32;2.67;;;1.00;96.10;;;;;;4942712;28;20023;-91
2022/01/05 01:58:48;;;;;;;15.75;2.53;;;1.10;96.10;;;;;;4943093;28;20384;-91
2022/01/05 02:01:17;;;;;;;16.38;2.92;;;1.10;95.90;;;;;;4929204;29;20020;-91
2022/01/05 02:03:45;;;;;;;18.98;2.55;;;1.00;95.90;;;;;;4943968;28;20500;-91
2022/01/05 02:06:14;;;;;;;15.43;2.38;;;1.00;95.90;;;;;;4927370;29;20484;-91
2022/01/05 02:09:27;;;;;;;;;;;;;;;;;;;;;
2022/01/05 02:11:53;;;;;;;9.82;2.35;;;0.90;95.80;;;;;;4937409;29;20027;-91
2022/01/05 02:14:21;;;;;;;13.82;1.88;;;1.00;96.00;;;;;;4943624;28;20391;-91
2022/01/05 02:16:49;;;;;;;16.73;2.50;;;1.00;96.00;;;;;;4948582;28;20032;-91
2022/01/05 02:19:23;;;;;;;12.40;2.30;;;1.00;95.90;;;;;;4945468;28;20056;-91
2022/01/05 02:21:48;;;;;;;17.75;3.15;;;1.00;95.80;;;;;;4931804;29;20400;-91
2022/01/05 02:24:22;;;;;;;13.32;2.75;;;1.10;95.60;;;;;;4945724;28;20028;-91
2022/01/05 02:27:08;;;;;;;10.38;1.90;;;1.00;95.60;;;;;;4933662;29;20091;-91
2022/01/05 02:29:48;;;;;;;11.60;2.45;;;1.00;95.40;;;;;;4953024;28;20445;-91
2022/01/05 02:32:16;;;;;;;16.55;2.58;;;1.00;95.50;;;;;;4946323;28;20036;-91
2022/01/05 02:34:44;;;;;;;14.13;2.72;;;1.00;95.40;;;;;;4942335;28;20032;-91
2022/01/05 02:37:18;;;;;;;12.60;2.13;;;1.10;95.30;;;;;;4946836;28;20024;-91
2022/01/05 02:39:53;;;;;;;17.30;2.47;;;1.10;95.00;;;;;;4946957;28;20087;-91
2022/01/05 02:42:27;;;;;;;17.13;2.75;;;1.10;95.00;;;;;;4942938;28;20054;-91
2022/01/05 02:44:56;;;;;;;7.32;1.77;;;1.10;94.90;;;;;;4930286;29;20035;-91
2022/01/05 02:47:22;;;;;;;12.27;2.38;;;1.10;94.90;;;;;;4928262;29;20031;-91
2022/01/05 02:49:48;;;;;;;7.80;1.85;;;1.10;95.00;;;;;;4946050;28;20042;-91
2022/01/05 02:52:15;;;;;;;17.15;2.85;;;1.00;95.00;;;;;;4932242;29;20044;-91
2022/01/05 02:54:42;;;;;;;15.07;2.13;;;1.00;95.00;;;;;;4928550;29;20063;-91
2022/01/05 02:57:11;;;;;;;7.10;2.10;;;1.00;95.00;;;;;;4940655;28;20475;-91
2022/01/05 02:59:39;;;;;;;17.40;2.63;;;1.10;94.90;;;;;;4929404;29;20024;-91
2022/01/05 03:02:12;;;;;;;10.55;1.77;;;1.10;94.80;;;;;;4939992;28;20389;-91
2022/01/05 03:04:40;;;;;;;15.15;2.28;;;1.10;94.60;;;;;;4928062;29;20020;-91
2022/01/05 03:07:05;;;;;;;17.13;2.47;;;1.10;94.60;;;;;;4950003;28;20019;-91
2022/01/05 03:09:34;;;;;;;12.98;2.28;;;1.20;94.60;;;;;;4947724;28;20031;-91
2022/01/05 03:12:07;;;;;;;10.25;1.98;;;1.20;94.40;;;;;;4948791;28;20027;-91
2022/01/05 03:14:35;;;;;;;6.95;1.40;;;1.30;94.10;;;;;;4928915;29;20491;-91
2022/01/05 03:17:01;;;;;;;6.55;1.60;;;1.20;94.10;;;;;;4929312;29;20028;-91
2022/01/05 03:19:36;;;;;;;9.13;1.70;;;1.10;94.30;;;;;;4943909;28;20038;-91
2022/01/05 03:22:04;;;;;;;10.38;1.98;;;1.10;94.40;;;;;;4928496;29;20472;-91
2022/01/05 03:24:37;;;;;;;14.70;1.65;;;1.10;94.40;;;;;;4931830;29;20098;-91
2022/01/05 03:27:10;;;;;;;21.13;2.50;;;1.00;94.60;;;;;;4942625;28;20027;-91
2022/01/05 03:29:41;;;;;;;12.48;1.65;;;0.90;94.60;;;;;;4944033;28;20525;-91
2022/01/05 03:32:08;;;;;;;13.60;2.00;;;1.00;94.60;;;;;;4940602;28;20115;-91
2022/01/05 03:34:37;;;;;;;7.68;2.00;;;1.00;94.40;;;;;;4931023;29;20039;-91
2022/01/05 03:37:03;;;;;;;9.98;1.90;;;1.00;94.50;;;;;;4935731;29;20058;-90
2022/01/05 03:39:34;;;;;;;10.15;2.10;;;1.00;94.40;;;;;;4944586;28;20112;-91
2022/01/05 03:42:02;;;;;;;17.10;2.15;;;1.00;94.50;;;;;;4932835;29;20110;-91
2022/01/05 03:44:27;;;;;;;17.92;2.63;;;1.00;94.60;;;;;;4946478;28;20515;-91
2022/01/05 03:46:56;;;;;;;7.10;1.75;;;1.10;94.60;;;;;;4928239;29;20028;-91
2022/01/05 03:49:24;;;;;;;13.23;2.45;;;1.20;94.20;;;;;;4943104;28;20465;-91
2022/01/05 03:51:49;;;;;;;10.35;2.40;;;1.10;94.00;;;;;;4926381;29;20036;-91
2022/01/05 03:54:20;;;;;;;8.43;2.42;;;1.10;94.10;;;;;;4930866;29;20035;-91
2022/01/05 03:56:46;;;;;;;16.05;2.78;;;1.20;94.10;;;;;;4952175;28;20031;-91
2022/01/05 03:59:11;;;;;;;16.38;3.20;;;1.30;93.80;;;;;;4937020;29;20511;-90
2022/01/05 04:01:39;;;;;;;13.52;2.92;;;1.30;93.70;;;;;;4926941;29;20484;-91
2022/01/05 04:04:07;;;;;;;6.15;1.58;;;1.20;93.70;;;;;;4941144;28;20425;-91
2022/01/05 04:06:32;;;;;;;10.73;2.08;;;1.30;93.80;;;;;;4925711;29;20981;-91
2022/01/05 04:08:58;;;;;;;8.77;1.65;;;1.40;93.30;;;;;;4945651;28;20143;-91
2022/01/05 04:11:23;;;;;;;8.82;1.80;;;1.40;93.20;;;;;;4942338;28;20027;-91
2022/01/05 04:13:56;;;;;;;13.40;1.58;;;1.40;93.20;;;;;;4942036;28;20508;-91
2022/01/05 04:16:24;;;;;;;12.55;1.95;;;1.40;93.20;;;;;;4931001;29;20055;-91
2022/01/05 04:19:02;;;;;;;;;;;;;;;;;;;;;
2022/01/05 04:21:30;;;;;;;12.65;2.08;;;1.30;93.30;;;;;;4927620;29;20020;-91
2022/01/05 04:23:56;;;;;;;14.27;2.17;;;1.40;93.10;;;;;;4929572;29;20122;-91
2022/01/05 04:26:23;;;;;;;10.52;1.73;;;1.30;93.40;;;;;;4947653;28;20120;-91
2022/01/05 04:28:52;;;;;;;11.65;3.60;;;1.40;93.30;;;;;;4947252;28;20059;-91
2022/01/05 04:31:28;;;;;;;;;;;;;;;;;;;;;
2022/01/05 04:34:05;;;;;;;10.88;2.10;;;1.40;93.20;;;;;;4926582;29;20031;-91
2022/01/05 04:36:50;;;;;;;10.20;1.83;;;1.50;93.00;;;;;;4942091;28;20827;-91
2022/01/05 04:39:18;;;;;;;6.30;1.38;;;1.50;92.80;;;;;;4921284;29;20032;-91
2022/01/05 04:41:49;;;;;;;10.07;2.30;;;1.50;92.90;;;;;;4941466;28;20048;-91
2022/01/05 04:44:16;;;;;;;17.25;1.95;;;1.50;92.80;;;;;;4930219;29;20395;-91
2022/01/05 04:46:42;;;;;;;9.57;1.80;;;1.50;92.80;;;;;;4925174;29;20043;-91
2022/01/05 04:49:07;;;;;;;10.18;2.05;;;1.50;92.90;;;;;;4930849;29;20028;-91
2022/01/05 04:51:33;;;;;;;13.20;2.25;;;1.50;92.90;;;;;;4942070;28;20035;-91
2022/01/05 04:54:01;;;;;;;8.18;1.85;;;1.60;92.60;;;;;;4946041;28;20023;-91
2022/01/05 04:56:35;;;;;;;12.27;1.95;;;1.60;92.40;;;;;;4945981;28;20024;-91
2022/01/05 04:59:03;;;;;;;9.95;1.98;;;1.60;92.40;;;;;;4947150;28;20038;-91
2022/01/05 05:01:37;;;;;;;7.15;1.42;;;1.70;92.10;;;;;;4940521;28;20076;-91
2022/01/05 05:04:08;;;;;;;12.00;2.47;;;1.70;92.20;;;;;;4946491;28;20028;-91
2022/01/05 05:06:49;;;;;;;11.75;2.40;;;1.70;92.00;;;;;;4939439;28;20464;-91
2022/01/05 05:09:21;;;;;;;17.48;2.00;;;1.70;91.90;;;;;;4929761;29;20547;-92
2022/01/05 05:11:50;;;;;;;10.23;1.58;;;1.70;91.90;;;;;;4944820;28;20024;-92
2022/01/05 05:17:31;;;;;;;13.65;1.80;;;1.70;91.90;;;;;;4923214;29;20040;-91
2022/01/05 05:20:15;;;;;;;4.88;1.17;;;1.80;91.50;;;;;;4932110;29;20471;-91
2022/01/05 05:23:04;;;;;;;13.70;1.55;;;1.80;91.40;;;;;;4929433;29;20043;-92
2022/01/05 05:25:48;;;;;;;6.95;1.80;;;1.80;91.50;;;;;;4929464;29;20067;-91
2022/01/05 05:28:24;;;;;;;13.43;2.17;;;1.80;91.00;;;;;;4927926;29;20063;-91
2022/01/05 05:30:55;;;;;;;9.60;1.63;;;1.90;91.10;;;;;;4931656;29;20079;-90
2022/01/05 05:33:20;;;;;;;15.80;2.38;;;1.90;91.00;;;;;;4927694;29;20058;-90
2022/01/05 05:35:48;;;;;;;10.40;1.50;;;2.00;90.80;;;;;;4928568;29;20062;-90
2022/01/05 05:38:17;;;;;;;14.80;1.75;;;2.00;90.90;;;;;;4925076;29;20030;-90
2022/01/05 05:40:47;;;;;;;8.55;1.85;;;2.10;90.80;;;;;;4933587;28;20115;-90
2022/01/05 05:43:15;;;;;;;16.20;2.33;;;2.10;90.20;;;;;;4931183;29;20155;-89
2022/01/05 05:45:40;;;;;;;8.52;1.55;;;2.10;90.40;;;;;;4929690;29;20043;-90
2022/01/05 05:48:23;;;;;;;;;;;;;;;;;;;;;
2022/01/05 05:50:58;;;;;;;7.43;1.38;;;2.10;90.60;;;;;;4938382;29;20031;-90
2022/01/05 05:53:27;;;;;;;11.50;2.05;;;2.10;90.60;;;;;;4929585;29;20035;-90
2022/01/05 05:55:59;;;;;;;6.07;1.80;;;2.20;90.50;;;;;;4953018;28;20070;-90
2022/01/05 05:58:32;;;;;;;8.98;1.75;;;2.10;91.10;;;;;;4934158;29;20031;-89
2022/01/05 06:01:05;;;;;;;8.55;1.70;;;2.20;90.60;;;;;;4945549;28;20172;-90
2022/01/05 06:03:31;;;;;;;8.60;1.90;;;2.20;90.80;;;;;;4951870;28;20389;-90
2022/01/05 06:05:59;;;;;;;14.00;2.38;;;2.30;90.50;;;;;;4948755;28;20019;-91
2022/01/05 06:08:24;;;;;;;8.15;2.15;;;2.20;90.70;;;;;;4947730;28;20024;-91
2022/01/05 06:10:50;;;;;;;8.43;2.28;;;2.20;91.10;;;;;;4947140;28;20088;-90
2022/01/05 06:13:17;;;;;;;12.57;1.42;;;2.20;90.70;;;;;;4929962;29;20114;-89
2022/01/05 06:15:43;;;;;;;11.00;1.73;;;2.30;90.30;;;;;;4943199;28;20042;-89
2022/01/05 06:18:11;;;;;;;10.55;1.75;;;2.30;90.50;;;;;;4946956;28;20122;-90
2022/01/05 06:20:39;;;;;;;5.72;1.90;;;2.30;90.60;;;;;;4946216;28;20023;-89
2022/01/05 06:23:13;;;;;;;10.13;2.35;;;2.30;90.30;;;;;;4931414;29;20031;-89
2022/01/05 06:25:49;;;;;;;13.20;1.60;;;2.30;90.70;;;;;;4934588;29;20079;-90
2022/01/05 06:28:40;;;;;;;8.82;1.50;;;2.40;90.20;;;;;;4939858;28;20520;-91
2022/01/05 06:31:20;;;;;;;13.02;1.92;;;2.30;90.30;;;;;;4946024;28;20026;-90
2022/01/05 06:34:26;;;;;;;8.48;1.95;;;2.30;90.30;;;;;;4948318;28;20484;-89
2022/01/05 06:36:54;;;;;;;10.07;2.05;;;2.30;90.20;;;;;;4926249;29;20039;-88
2022/01/05 06:39:25;;;;;;;7.28;1.50;;;2.40;90.00;;;;;;4936225;29;20028;-89
2022/01/05 06:42:13;;;;;;;5.93;1.80;;;2.30;90.10;;;;;;4949149;28;20094;-89
2022/01/05 06:44:41;;;;;;;11.27;2.03;;;2.20;90.30;;;;;;4927434;29;20034;-89
2022/01/05 06:47:07;;;;;;;10.52;2.28;;;2.30;89.80;;;;;;4931934;29;20032;-89
2022/01/05 06:49:42;;;;;;;11.20;2.25;;;2.30;89.70;;;;;;4949589;28;20380;-89
2022/01/05 06:55:01;;;;;;;7.07;1.50;;;2.30;89.40;;;;;;4931291;29;20051;-87
2022/01/05 06:57:26;;;;;;;10.43;2.45;;;2.40;89.50;;;;;;4932186;29;20047;-88
2022/01/05 07:00:02;;;;;;;12.88;2.35;;;2.40;90.00;;;;;;4943801;28;20035;-88
2022/01/05 07:02:32;;;;;;;14.50;2.10;;;2.40;89.80;;;;;;4950313;28;20047;-88
2022/01/05 07:05:27;;;;;;;7.90;1.63;;;2.40;89.50;;;;;;4932960;29;20428;-88
2022/01/05 07:07:54;;;;;;;8.38;1.67;;;2.40;89.60;;;;;;4928993;29;20499;-88
2022/01/05 07:10:36;;;;;;;11.07;1.58;;;2.40;89.70;;;;;;4942654;28;20114;-88
2022/01/05 07:13:11;;;;;;;6.95;2.08;;;2.40;89.30;;;;;;4943985;28;20055;-88
2022/01/05 07:15:36;;;;;;;11.48;1.83;;;2.40;89.60;;;;;;4933710;29;20043;-88
2022/01/05 07:18:02;;;;;;;11.68;1.77;;;2.40;89.70;;;;;;4934752;29;20032;-88
2022/01/05 07:20:28;;;;;;;9.85;1.85;;;2.40;89.90;;;;;;4949620;28;20491;-88
2022/01/05 07:22:54;;;;;;;8.88;1.98;;;2.40;89.70;;;;;;4948442;28;20115;-88
2022/01/05 07:25:19;;;;;;;13.55;1.98;;;2.40;89.40;;;;;;4943028;28;20032;-88
2022/01/05 07:27:47;;;;;;;8.55;1.42;;;2.40;89.50;;;;;;4931637;29;20036;-88
2022/01/05 07:30:13;;;;;;;11.52;1.98;;;2.30;89.50;;;;;;4946956;28;20019;-88
2022/01/05 07:32:40;;;;;;;14.77;1.75;;;2.40;89.50;;;;;;4934421;29;20550;-88
2022/01/05 07:35:09;;;;;;;10.98;2.22;;;2.40;89.20;;;;;;4930795;29;20483;-88
2022/01/05 07:37:37;;;;;;;12.23;1.85;;;2.50;89.20;;;;;;4945876;28;20028;-88
2022/01/05 07:40:05;;;;;;;13.48;2.47;;;2.40;89.30;;;;;;4930912;29;20476;-88
2022/01/05 07:42:33;;;;;;;17.73;2.65;;;2.40;89.00;;;;;;4938453;28;20445;-88
2022/01/05 07:45:00;;;;;;;13.85;2.20;;;2.40;89.20;;;;;;4927206;29;20055;-88
2022/01/05 07:47:26;;;;;;;9.90;2.08;;;2.40;89.40;;;;;;4943165;28;20020;-88
2022/01/05 07:49:51;;;;;;;7.90;2.00;;;2.40;89.30;;;;;;4937203;29;20118;-88
2022/01/05 07:52:17;;;;;;;12.20;1.77;;;2.50;89.20;;;;;;4943883;28;20040;-88
2022/01/05 07:54:42;;;;;;;10.95;2.22;;;2.50;88.90;;;;;;4929809;29;20082;-88
2022/01/05 07:57:08;;;;;;;9.25;1.95;;;2.50;89.20;;;;;;4927364;29;20083;-89
2022/01/05 07:59:33;;;;;;;6.13;1.60;;;2.50;89.00;;;;;;4932363;29;20473;-88
2022/01/05 08:01:59;;;;;;;10.23;1.90;;;2.50;89.40;;;;;;4933839;29;20028;-88
2022/01/05 08:04:25;;;;;;;14.40;1.83;;;2.50;89.30;;;;;;4956103;28;20020;-88
2022/01/05 08:06:50;;;;;;;8.77;2.33;;;2.50;89.10;;;;;;4943138;28;20038;-88
2022/01/05 08:09:16;;;;;;;15.50;2.45;;;2.60;88.90;;;;;;4942106;28;20480;-88
2022/01/05 08:11:41;;;;;;;13.57;1.92;;;2.50;89.10;;;;;;4933728;29;20487;-88
2022/01/05 08:14:07;;;;;;;7.28;1.67;;;2.60;89.00;;;;;;4948396;28;20491;-88
2022/01/05 08:16:32;;;;;;;4.82;1.42;;;2.50;89.60;;;;;;4937489;28;20032;-88
2022/01/05 08:18:58;;;;;;;6.43;1.23;;;2.40;90.00;;;;;;4928158;29;20024;-88
2022/01/05 08:21:23;;;;;;;16.13;2.50;;;2.40;90.60;;;;;;4941417;28;20434;-88
2022/01/05 08:23:50;;;;;;;11.88;2.65;;;2.30;90.70;;;;;;4947385;28;20030;-88
2022/01/05 08:26:15;;;;;;;9.65;1.88;;;2.20;91.30;;;;;;4935261;29;20023;-88
2022/01/05 08:28:41;;;;;;;14.15;2.70;;;2.20;91.80;;;;;;4934814;29;20032;-88
2022/01/05 08:31:07;;;;;;;18.17;2.63;;;2.10;92.10;;;;;;4927173;29;20024;-88
2022/01/05 08:33:34;;;;;;;6.20;2.13;;;2.10;92.40;;;;;;4945207;28;20039;-88
2022/01/05 08:36:01;;;;;;;14.02;2.95;;;2.10;92.50;;;;;;4944006;28;20027;-88
2022/01/05 08:38:27;;;;;;;14.73;2.45;;;2.10;92.70;;;;;;4943047;28;20031;-88
2022/01/05 08:40:52;;;;;;;7.18;1.65;;;2.10;93.00;;;;;;4926357;29;20043;-88
2022/01/05 08:43:18;;;;;;;14.90;2.30;;;2.10;92.70;;;;;;4925292;29;20032;-88
2022/01/05 08:45:44;;;;;;;12.93;2.08;;;2.10;93.00;;;;;;4943220;28;20028;-88
2022/01/05 08:48:13;;;;;;;13.90;2.70;;;2.20;93.30;;;;;;4942380;28;20082;-88
2022/01/05 08:50:39;;;;;;;10.75;2.28;;;2.20;93.20;;;;;;4940754;28;20043;-88
2022/01/05 08:53:06;;;;;;;9.27;2.55;;;2.10;93.30;;;;;;4941540;28;20027;-87
2022/01/05 08:55:41;;;;;;;12.05;2.72;;;2.20;93.10;;;;;;4947851;28;20023;-87
2022/01/05 08:58:08;;;;;;;10.80;3.30;;;2.20;93.50;;;;;;4929309;29;20110;-88
2022/01/05 09:00:35;;;;;;;15.65;3.00;;;2.10;93.60;;;;;;4932651;29;20027;-88
2022/01/05 09:03:00;;;;;;;13.10;2.83;;;2.20;93.60;;;;;;4941279;28;20035;-88
2022/01/05 09:05:28;;;;;;;11.23;2.13;;;2.20;93.50;;;;;;4920385;29;20030;-88
2022/01/05 09:07:54;;;;;;;15.25;2.85;;;2.20;93.40;;;;;;4943130;28;20123;-88
2022/01/05 09:10:22;;;;;;;14.15;2.92;;;2.30;93.10;;;;;;4944575;28;20143;-88
2022/01/05 09:12:48;;;;;;;8.27;2.35;;;2.30;93.10;;;;;;4947144;28;20024;-88
2022/01/05 09:15:13;;;;;;;13.45;2.95;;;2.30;93.10;;;;;;4950827;28;20095;-88
2022/01/05 09:17:39;;;;;;;11.73;2.60;;;2.30;93.20;;;;;;4923102;29;20040;-88
2022/01/05 09:20:05;;;;;;;14.25;2.80;;;2.30;93.60;;;;;;4948480;28;20036;-88
2022/01/05 09:22:31;;;;;;;10.25;2.50;;;2.30;93.80;;;;;;4925815;29;20062;-89
2022/01/05 09:24:56;;;;;;;11.20;2.63;;;2.30;94.00;;;;;;4932144;29;20099;-88
2022/01/05 09:27:29;;;;;;;11.18;2.58;;;2.40;94.10;;;;;;4944395;28;20539;-89
2022/01/05 09:29:55;;;;;;;12.68;2.53;;;2.30;94.20;;;;;;4932155;29;20134;-89
2022/01/05 09:32:20;;;;;;;11.27;2.60;;;2.40;94.00;;;;;;4933443;29;20110;-88
2022/01/05 09:34:49;;;;;;;8.55;2.58;;;2.40;94.20;;;;;;4927598;29;20070;-88
2022/01/05 09:37:22;;;;;;;11.20;2.78;;;2.40;94.20;;;;;;4933849;29;20030;-88
2022/01/05 09:42:33;;;;;;;10.95;3.15;;;2.40;94.40;;;;;;4933441;29;20171;-88
2022/01/05 09:44:59;;;;;;;9.20;3.20;;;2.40;94.60;;;;;;4931658;29;20495;-87
2022/01/05 09:47:52;;;;;;;14.30;3.25;;;2.40;94.50;;;;;;4928426;29;20453;-87
2022/01/05 09:50:19;;;;;;;11.77;3.15;;;2.50;94.50;;;;;;4944553;28;20032;-87
2022/01/05 09:52:45;;;;;;;17.15;3.28;;;2.50;94.30;;;;;;4931174;29;20031;-87
2022/01/05 09:55:13;;;;;;;6.43;2.38;;;2.60;94.30;;;;;;4948533;28;20052;-87
2022/01/05 09:57:40;;;;;;;12.30;3.15;;;2.60;94.40;;;;;;4930905;29;20090;-88
2022/01/05 10:00:07;;;;;;;9.88;3.25;;;2.60;94.20;;;;;;4932455;29;20028;-87
2022/01/05 10:02:33;;;;;;;14.35;3.15;;;2.60;94.00;;;;;;4931013;29;20480;-87
2022/01/05 10:05:00;;;;;;;8.63;3.15;;;2.60;94.00;;;;;;4949511;28;20019;-87
2022/01/05 10:07:28;;;;;;;14.98;3.10;;;2.70;93.70;;;;;;4934258;29;20043;-87
2022/01/05 10:09:54;;;;;;;14.07;3.45;;;2.80;93.70;;;;;;4930065;29;20410;-85
2022/01/05 10:12:20;;;;;;;12.23;3.55;;;2.80;93.60;;;;;;4927377;29;20031;-87
2022/01/05 10:14:48;;;;;;;13.40;3.28;;;2.80;93.50;;;;;;4932194;29;20034;-88
2022/01/05 10:17:23;;;;;;;14.20;3.63;;;2.80;93.40;;;;;;4926921;29;20063;-88
2022/01/05 10:19:56;;;;;;;11.02;3.40;;;2.90;93.20;;;;;;4946776;28;20059;-88
2022/01/05 10:22:32;;;;;;;10.10;3.50;;;2.90;93.10;;;;;;4942522;28;20064;-88
2022/01/05 10:24:58;;;;;;;10.27;3.05;;;3.00;93.00;;;;;;4924515;29;20055;-88
2022/01/05 10:27:25;;;;;;;10.50;3.05;;;3.00;92.80;;;;;;4942348;28;20119;-88
2022/01/05 10:29:57;;;;;;;15.82;3.28;;;3.00;92.90;;;;;;4941795;28;20024;-88
2022/01/05 10:32:25;;;;;;;7.22;2.30;;;3.00;92.80;;;;;;4924841;29;20086;-88
2022/01/05 10:35:22;;;;;;;12.18;3.05;;;3.00;92.90;;;;;;4941840;28;20042;-88
2022/01/05 10:37:57;;;;;;;11.77;2.83;;;3.00;93.20;;;;;;4938453;28;20266;-88
2022/01/05 10:40:23;;;;;;;10.82;2.90;;;3.00;93.40;;;;;;4928886;29;20048;-88
2022/01/05 10:42:55;;;;;;;12.38;3.08;;;3.00;93.70;;;;;;4934002;29;20083;-88
2022/01/05 10:45:42;;;;;;;11.10;3.88;;;2.90;94.10;;;;;;4947744;28;20115;-88
2022/01/05 10:48:16;;;;;;;8.38;2.63;;;2.90;94.20;;;;;;4936608;29;20032;-88
2022/01/05 10:50:43;;;;;;;8.15;3.00;;;2.90;94.30;;;;;;4931428;29;20099;-88
2022/01/05 10:53:14;;;;;;;7.10;2.00;;;2.80;94.50;;;;;;4932822;29;20067;-88
2022/01/05 10:55:42;;;;;;;8.43;2.50;;;2.80;94.50;;;;;;4943678;28;20040;-88
2022/01/05 10:58:10;;;;;;;6.47;2.35;;;2.80;94.60;;;;;;4932641;29;20055;-88
2022/01/05 11:00:42;;;;;;;6.63;2.78;;;2.70;94.90;;;;;;4948641;28;20032;-88
2022/01/05 11:03:37;;;;;;;5.45;2.35;;;2.70;94.80;;;;;;4930938;29;20385;-88
2022/01/05 11:06:11;;;;;;;4.80;1.92;;;2.60;95.20;;;;;;4929064;29;20023;-88
2022/01/05 11:08:58;;;;;;;6.07;2.60;;;2.30;95.10;;;;;;4951076;28;20153;-88
2022/01/05 11:11:37;;;;;;;8.10;2.75;;;2.20;95.30;;;;;;4934888;29;20028;-88
2022/01/05 11:14:11;;;;;;;6.88;2.40;;;2.20;95.70;;;;;;4945769;28;20074;-88
2022/01/05 11:16:40;;;;;;;11.43;3.08;;;2.40;96.00;;;;;;4935410;29;20012;-88
2022/01/05 11:19:27;;;;;;;4.65;2.65;;;2.50;96.10;;;;;;4938620;29;20113;-88
2022/01/05 11:22:02;;;;;;;6.15;2.40;;;2.50;95.90;;;;;;4949968;28;20024;-88
2022/01/05 11:24:39;;;;;;;2.85;1.75;;;2.50;95.70;;;;;;4936941;29;20019;-88
2022/01/05 11:27:10;;;;;;;5.25;1.92;;;2.40;95.60;;;;;;4927063;29;20024;-89
2022/01/05 11:29:36;;;;;;;3.20;1.55;;;2.20;95.60;;;;;;4954626;28;20016;-89
2022/01/05 11:32:07;;;;;;;3.33;1.80;;;2.10;95.90;;;;;;4950716;28;20036;-88
2022/01/05 11:34:39;;;;;;;2.92;1.70;;;2.10;96.10;;;;;;4947468;28;20032;-88
2022/01/05 11:37:07;;;;;;;4.57;1.98;;;2.10;96.20;;;;;;4955672;28;20047;-89
2022/01/05 11:39:37;;;;;;;5.43;2.30;;;2.10;96.20;;;;;;4928369;29;20074;-88
2022/01/05 11:42:10;;;;;;;6.18;2.53;;;2.00;96.40;;;;;;4934554;28;20119;-88
2022/01/05 11:44:48;;;;;;;6.28;2.70;;;2.00;96.40;;;;;;4936017;29;20079;-88
2022/01/05 11:47:19;;;;;;;4.80;2.50;;;2.10;96.60;;;;;;4941521;28;20052;-89
2022/01/05 11:49:45;;;;;;;5.95;2.78;;;2.20;96.70;;;;;;4932279;29;20069;-88
2022/01/05 11:52:11;;;;;;;5.57;2.53;;;2.20;96.70;;;;;;4946050;28;20127;-88
2022/01/05 11:54:36;;;;;;;4.68;2.33;;;2.30;96.80;;;;;;4943805;28;20122;-89
2022/01/05 11:57:10;;;;;;;6.90;3.45;;;2.40;96.80;;;;;;4946094;28;20024;-88
2022/01/05 11:59:38;;;;;;;4.93;2.88;;;2.40;96.80;;;;;;4945509;28;20031;-88
2022/01/05 12:02:21;;;;;;;5.22;2.50;;;2.50;96.70;;;;;;4947604;28;20523;-89
2022/01/05 12:04:56;;;;;;;5.78;3.30;;;2.60;96.60;;;;;;4945140;28;20531;-89
2022/01/05 12:07:47;;;;;;;5.15;2.50;;;2.60;96.40;;;;;;4941028;28;20558;-89
2022/01/05 12:10:22;;;;;;;5.03;2.75;;;2.50;96.30;;;;;;4942964;28;20024;-88
2022/01/05 12:13:37;;;;;;;6.05;2.60;;;2.40;96.20;;;;;;4948738;28;20040;-89
2022/01/05 12:16:02;;;;;;;6.25;3.00;;;2.40;96.30;;;;;;4953508;28;20118;-88
2022/01/05 12:18:36;;;;;;;4.13;2.50;;;2.40;96.40;;;;;;4932625;29;20126;-89
2022/01/05 12:21:02;;;;;;;6.25;3.60;;;2.40;96.30;;;;;;4932202;29;20059;-88
2022/01/05 12:23:30;;;;;;;6.10;3.60;;;2.50;96.40;;;;;;4946202;28;20053;-89
2022/01/05 12:26:05;;;;;;;5.97;3.65;;;2.50;96.40;;;;;;4945876;28;20343;-88
2022/01/05 12:28:39;;;;;;;7.30;3.70;;;2.50;96.50;;;;;;4945849;28;20028;-89
2022/01/05 12:31:11;;;;;;;8.20;3.65;;;2.60;96.60;;;;;;4945831;28;20023;-89
2022/01/05 12:33:46;;;;;;;5.50;3.60;;;2.60;96.60;;;;;;4930028;29;20026;-89
2022/01/05 12:36:15;;;;;;;6.13;3.88;;;2.70;96.50;;;;;;4926854;29;20063;-88
2022/01/05 12:38:54;;;;;;;8.23;3.92;;;2.80;96.50;;;;;;4919560;29;21056;-89
2022/01/05 12:41:49;;;;;;;;;;;;;;;;;;;;;
2022/01/05 12:44:18;;;;;;;6.35;3.63;;;2.70;96.40;;;;;;4927373;29;20030;-88
2022/01/05 12:46:54;;;;;;;6.60;3.90;;;2.70;96.40;;;;;;4946093;28;20027;-88
2022/01/05 12:49:26;;;;;;;5.95;4.10;;;2.70;96.50;;;;;;4928012;29;20019;-88
2022/01/05 12:51:53;;;;;;;7.07;3.55;;;2.70;96.40;;;;;;4926773;29;20036;-88
2022/01/05 12:54:28;;;;;;;6.30;2.90;;;2.70;96.40;;;;;;4927926;29;20033;-88
2022/01/05 12:56:59;;;;;;;6.07;3.63;;;2.60;96.40;;;;;;4941912;28;20023;-89
2022/01/05 12:59:39;;;;;;;5.90;3.22;;;2.70;96.40;;;;;;4940195;28;20020;-88
2022/01/05 13:02:16;;;;;;;6.07;3.20;;;2.80;96.40;;;;;;4929538;29;20051;-89
2022/01/05 13:04:46;;;;;;;9.52;3.15;;;2.90;96.30;;;;;;4929620;29;20024;-88
2022/01/05 13:07:13;;;;;;;4.78;2.28;;;2.90;96.10;;;;;;4940381;28;20020;-88
2022/01/05 13:09:46;;;;;;;6.95;2.47;;;2.90;96.20;;;;;;4939635;28;20331;-88
2022/01/05 13:12:16;;;;;;;6.13;2.50;;;2.90;96.20;;;;;;4928135;29;20035;-88
2022/01/05 13:14:47;;;;;;;6.35;2.03;;;3.00;96.20;;;;;;4937317;28;20038;-88
2022/01/05 13:17:13;;;;;;;;;;;3.00;96.20;;;;;;4944194;28;20507;-88
2022/01/05 13:19:47;;;;;;;5.78;1.75;;;3.00;96.20;;;;;;4932777;29;19919;-89
2022/01/05 13:22:42;;;;;;;4.65;2.20;;;3.00;96.30;;;;;;4943120;28;20058;-88
2022/01/05 13:25:24;;;;;;;8.18;2.67;;;3.00;96.40;;;;;;4942162;28;20031;-88